Time;durP1;ratioP1;P1;durP2;ratioP2;P2;SDS_P1;SDS_P2;PMS_P1;PMS_P2;Temp;Humidity;BMP_temperature;BMP_pressure;BME280_temperature;BME280_humidity;BME280_pressure;Samples;Min_cycle;Max_cycle;Signal;HPM_P1;HPM_P2
2021/10/03 00:00:04;;;;;;;1.42;1.33;;;20.70;77.60;;;;;;5014833;28;20049;-50
2021/10/03 00:02:32;;;;;;;3.28;1.17;;;20.90;77.00;;;;;;5014784;28;20037;-60
2021/10/03 00:05:02;;;;;;;2.38;1.50;;;20.90;76.80;;;;;;5013857;28;20034;-65
2021/10/03 00:07:37;;;;;;;1.83;1.45;;;21.00;77.00;;;;;;5012588;28;20026;-59
2021/10/03 00:10:05;;;;;;;1.88;1.55;;;21.10;75.10;;;;;;5013296;28;20026;-59
2021/10/03 00:12:38;;;;;;;2.70;1.38;;;21.10;77.70;;;;;;5012688;28;20029;-59
2021/10/03 00:15:08;;;;;;;4.13;1.67;;;21.00;77.90;;;;;;4980511;28;20391;-64
2021/10/03 00:17:35;;;;;;;1.42;1.30;;;21.20;77.40;;;;;;5013897;28;20132;-62
2021/10/03 00:20:07;;;;;;;4.18;1.40;;;21.20;76.40;;;;;;5014334;28;20022;-63
2021/10/03 00:22:34;;;;;;;3.97;1.48;;;21.20;76.00;;;;;;5012346;28;20026;-59
2021/10/03 00:25:02;;;;;;;5.15;1.35;;;21.40;73.20;;;;;;4994367;28;20038;-59
2021/10/03 00:27:29;;;;;;;6.85;2.47;;;21.60;71.40;;;;;;4994607;28;20048;-59
2021/10/03 00:29:57;;;;;;;3.50;2.78;;;21.80;69.80;;;;;;5011498;28;20059;-60
2021/10/03 00:32:24;;;;;;;5.90;3.45;;;21.90;69.50;;;;;;5011689;28;20497;-55
2021/10/03 00:34:52;;;;;;;3.78;2.97;;;22.00;70.20;;;;;;5011617;28;20078;-57
2021/10/03 00:37:20;;;;;;;4.18;3.70;;;22.10;68.30;;;;;;5012121;28;20487;-59
2021/10/03 00:39:47;;;;;;;7.07;4.18;;;22.10;68.60;;;;;;5011676;28;20034;-56
2021/10/03 00:42:15;;;;;;;5.40;3.72;;;22.10;70.20;;;;;;4994303;28;20139;-56
2021/10/03 00:44:43;;;;;;;5.35;2.65;;;22.10;69.60;;;;;;5011152;28;20038;-58
2021/10/03 00:47:11;;;;;;;4.00;2.83;;;22.10;68.30;;;;;;5011706;28;20422;-57
2021/10/03 00:49:38;;;;;;;2.95;2.30;;;22.10;69.80;;;;;;5011899;28;20026;-59
2021/10/03 00:52:07;;;;;;;3.17;2.08;;;22.20;66.90;;;;;;5011732;28;20026;-60
2021/10/03 00:54:36;;;;;;;2.38;1.50;;;22.10;67.70;;;;;;5011888;28;20083;-50
2021/10/03 00:57:04;;;;;;;4.13;2.42;;;22.30;65.40;;;;;;5011578;28;20448;-60
2021/10/03 00:59:33;;;;;;;5.22;2.28;;;22.30;68.90;;;;;;5011941;28;20544;-58
2021/10/03 01:02:01;;;;;;;3.60;1.60;;;22.40;65.70;;;;;;5011341;28;20026;-59
2021/10/03 01:04:29;;;;;;;4.90;2.22;;;22.40;67.30;;;;;;5011499;28;20491;-55
2021/10/03 01:06:56;;;;;;;6.30;1.65;;;22.50;66.00;;;;;;5010962;28;20098;-63
2021/10/03 01:09:23;;;;;;;3.28;1.73;;;22.50;67.50;;;;;;5011433;28;20029;-67
2021/10/03 01:11:51;;;;;;;8.18;1.90;;;22.30;67.60;;;;;;4994074;28;20125;-62
2021/10/03 01:14:19;;;;;;;5.80;1.73;;;22.20;68.60;;;;;;5011803;28;20053;-64
2021/10/03 01:16:47;;;;;;;3.42;1.20;;;22.20;67.00;;;;;;5012280;28;20030;-62
2021/10/03 01:19:16;;;;;;;4.03;1.75;;;22.30;67.00;;;;;;5012008;28;20403;-67
2021/10/03 01:21:47;;;;;;;3.00;1.55;;;22.30;69.90;;;;;;5011249;28;20018;-68
2021/10/03 01:24:15;;;;;;;4.07;1.90;;;22.30;70.40;;;;;;5010702;28;20064;-66
2021/10/03 01:26:43;;;;;;;3.88;1.75;;;22.30;69.60;;;;;;5011677;28;20034;-64
2021/10/03 01:29:11;;;;;;;2.58;1.55;;;22.40;69.90;;;;;;5011336;28;20090;-59
2021/10/03 01:31:39;;;;;;;4.80;1.40;;;22.40;68.20;;;;;;5011838;28;20175;-68
2021/10/03 01:34:06;;;;;;;7.80;1.38;;;22.40;69.90;;;;;;5011184;28;20026;-58
2021/10/03 01:36:34;;;;;;;4.07;1.38;;;22.40;69.20;;;;;;5010107;28;20115;-54
2021/10/03 01:39:02;;;;;;;9.85;1.92;;;22.50;69.40;;;;;;5011513;28;20022;-66
2021/10/03 01:41:30;;;;;;;4.65;1.50;;;22.50;68.30;;;;;;5010978;28;20029;-59
2021/10/03 01:43:58;;;;;;;8.73;1.48;;;22.60;68.50;;;;;;5011100;28;20050;-64
2021/10/03 01:46:25;;;;;;;2.15;1.35;;;22.60;66.90;;;;;;5011000;28;20033;-61
2021/10/03 01:48:52;;;;;;;2.58;1.33;;;22.60;68.10;;;;;;5011205;28;20434;-67
2021/10/03 01:51:20;;;;;;;3.97;1.50;;;22.50;71.40;;;;;;5010837;28;20026;-65
2021/10/03 01:53:53;;;;;;;5.65;1.88;;;22.50;68.10;;;;;;5010617;28;20396;-62
2021/10/03 01:56:23;;;;;;;8.32;1.50;;;22.50;69.20;;;;;;5010841;28;20033;-61
2021/10/03 01:58:57;;;;;;;4.63;1.50;;;22.60;69.90;;;;;;5010694;28;20030;-64
2021/10/03 02:01:32;;;;;;;3.20;1.63;;;22.50;71.90;;;;;;5010686;28;20022;-59
2021/10/03 02:04:00;;;;;;;3.83;1.58;;;22.60;70.10;;;;;;4993493;28;20042;-68
2021/10/03 02:06:27;;;;;;;4.68;1.50;;;22.70;67.30;;;;;;5010598;28;20061;-62
2021/10/03 02:08:59;;;;;;;2.58;1.48;;;22.60;70.10;;;;;;5009950;28;20026;-62
2021/10/03 02:11:28;;;;;;;2.95;1.20;;;22.60;69.50;;;;;;5010476;28;20061;-56
2021/10/03 02:13:59;;;;;;;2.30;1.70;;;22.70;68.20;;;;;;5010714;28;20030;-65
2021/10/03 02:16:26;;;;;;;10.68;1.52;;;22.70;71.10;;;;;;5002310;28;20395;-56
2021/10/03 02:18:54;;;;;;;8.82;1.58;;;22.60;72.10;;;;;;5008753;28;20447;-62
2021/10/03 02:21:21;;;;;;;7.18;1.50;;;22.70;70.50;;;;;;5009699;28;20030;-60
2021/10/03 02:23:52;;;;;;;3.42;1.38;;;22.70;67.30;;;;;;5003196;28;20070;-61
2021/10/03 02:26:20;;;;;;;2.95;1.20;;;22.80;70.80;;;;;;5005406;28;20393;-61
2021/10/03 02:28:48;;;;;;;6.47;1.38;;;22.80;70.20;;;;;;5007839;28;20022;-60
2021/10/03 02:31:15;;;;;;;5.45;1.50;;;22.80;68.40;;;;;;5009181;28;20025;-59
2021/10/03 02:33:48;;;;;;;2.15;1.20;;;22.80;66.90;;;;;;5005643;28;20380;-59
2021/10/03 02:36:17;;;;;;;4.80;2.45;;;22.80;68.40;;;;;;5009032;28;20166;-63
2021/10/03 02:38:45;;;;;;;3.55;1.02;;;22.80;70.90;;;;;;4990857;28;20420;-58
2021/10/03 02:41:13;;;;;;;2.95;1.20;;;22.90;69.50;;;;;;5008705;28;20475;-60
2021/10/03 02:43:43;;;;;;;1.52;1.35;;;22.90;70.80;;;;;;5005101;28;20033;-65
2021/10/03 02:46:11;;;;;;;4.53;1.95;;;22.90;68.60;;;;;;4991413;28;20063;-68
2021/10/03 02:48:40;;;;;;;2.92;1.38;;;22.90;70.60;;;;;;5010954;28;20026;-52
2021/10/03 02:51:08;;;;;;;4.63;2.00;;;22.90;68.50;;;;;;5012652;28;20026;-64
2021/10/03 02:53:36;;;;;;;4.45;2.10;;;22.90;68.70;;;;;;5008088;28;20122;-69
2021/10/03 02:56:03;;;;;;;5.15;3.42;;;23.00;71.50;;;;;;5013230;28;20018;-71
2021/10/03 02:58:31;;;;;;;3.50;2.25;;;23.10;68.60;;;;;;5011779;28;20464;-73
2021/10/03 03:00:58;;;;;;;3.35;2.17;;;23.30;65.90;;;;;;5011759;28;20106;-62
2021/10/03 03:03:25;;;;;;;4.45;2.03;;;23.30;67.20;;;;;;5008575;28;20442;-55
2021/10/03 03:05:53;;;;;;;4.43;1.52;;;23.30;70.00;;;;;;5008691;28;20410;-57
2021/10/03 03:08:20;;;;;;;5.70;1.73;;;23.70;61.60;;;;;;5011635;28;20026;-61
2021/10/03 03:10:48;;;;;;;4.75;3.70;;;23.80;59.60;;;;;;5011950;28;20057;-59
2021/10/03 03:13:15;;;;;;;3.20;2.55;;;24.00;62.60;;;;;;5007528;28;20030;-61
2021/10/03 03:15:42;;;;;;;11.50;6.55;;;24.10;60.10;;;;;;5012177;28;20021;-59
2021/10/03 03:18:10;;;;;;;6.38;5.78;;;24.10;59.20;;;;;;5011691;28;20384;-61
2021/10/03 03:20:37;;;;;;;5.00;4.50;;;24.10;60.50;;;;;;5011494;28;20085;-54
2021/10/03 03:23:05;;;;;;;6.63;5.97;;;24.10;58.50;;;;;;4989224;28;21648;-57
2021/10/03 03:25:32;;;;;;;9.07;8.18;;;24.20;57.80;;;;;;5012065;28;20063;-59
2021/10/03 03:28:00;;;;;;;6.20;5.60;;;24.30;57.30;;;;;;5010941;28;20531;-63
2021/10/03 03:30:27;;;;;;;7.72;6.95;;;24.50;53.70;;;;;;5012134;28;20476;-59
2021/10/03 03:32:55;;;;;;;10.75;9.68;;;24.70;55.10;;;;;;5008262;28;20025;-54
2021/10/03 03:35:22;;;;;;;10.07;8.80;;;24.70;55.70;;;;;;5010701;28;20417;-58
2021/10/03 03:37:50;;;;;;;9.80;8.70;;;24.80;54.80;;;;;;5011379;28;20030;-58
2021/10/03 03:40:19;;;;;;;17.50;15.60;;;24.70;55.30;;;;;;5012183;28;20162;-57
2021/10/03 03:42:48;;;;;;;10.85;9.45;;;24.80;54.70;;;;;;5009038;28;20026;-57
2021/10/03 03:45:16;;;;;;;15.30;13.38;;;24.70;53.40;;;;;;5010013;28;20038;-61
2021/10/03 03:47:43;;;;;;;17.42;14.63;;;24.70;52.50;;;;;;5011539;28;20029;-61
2021/10/03 03:50:16;;;;;;;14.20;12.88;;;24.70;53.80;;;;;;5012084;28;20514;-58
2021/10/03 03:52:44;;;;;;;21.60;19.30;;;24.70;54.20;;;;;;5010933;28;20531;-54
2021/10/03 03:55:12;;;;;;;21.42;19.17;;;24.50;56.00;;;;;;4987624;28;20037;-60
2021/10/03 03:57:40;;;;;;;14.63;13.18;;;24.20;56.20;;;;;;5007209;28;20086;-59
2021/10/03 04:00:19;;;;;;;12.88;11.57;;;23.90;58.10;;;;;;5012029;28;20464;-62
2021/10/03 04:02:50;;;;;;;15.90;14.23;;;23.70;59.60;;;;;;4994220;28;20063;-60
2021/10/03 04:05:17;;;;;;;13.80;12.50;;;23.60;61.60;;;;;;5010738;28;20038;-63
2021/10/03 04:07:45;;;;;;;12.60;11.43;;;23.60;60.60;;;;;;5012619;28;20017;-59
2021/10/03 04:10:23;;;;;;;13.68;12.27;;;23.60;60.70;;;;;;5011695;28;20376;-59
2021/10/03 04:12:50;;;;;;;12.80;11.57;;;23.60;61.10;;;;;;5008260;28;20028;-60
2021/10/03 04:15:18;;;;;;;10.48;9.35;;;23.60;60.80;;;;;;5010171;28;20371;-61
2021/10/03 04:17:49;;;;;;;14.77;13.18;;;23.70;58.50;;;;;;5012271;28;20018;-61
2021/10/03 04:20:16;;;;;;;10.32;9.20;;;23.60;62.20;;;;;;4994825;28;20452;-63
2021/10/03 04:22:44;;;;;;;10.80;9.80;;;23.70;59.80;;;;;;5010372;28;20061;-62
2021/10/03 04:25:14;;;;;;;11.25;9.20;;;23.70;59.70;;;;;;5008507;28;20127;-62
2021/10/03 04:27:54;;;;;;;8.23;7.35;;;23.80;61.90;;;;;;5011466;28;20101;-61
2021/10/03 04:30:22;;;;;;;8.98;7.70;;;23.70;59.70;;;;;;5011905;28;20030;-60
2021/10/03 04:32:49;;;;;;;8.73;7.88;;;24.00;61.30;;;;;;5009084;28;20022;-63
2021/10/03 04:35:17;;;;;;;11.10;9.50;;;24.00;60.40;;;;;;5008893;28;20419;-64
2021/10/03 04:37:44;;;;;;;12.75;9.00;;;23.80;64.10;;;;;;5010018;28;20071;-64
2021/10/03 04:40:12;;;;;;;8.13;6.63;;;23.70;62.10;;;;;;5010094;28;20425;-66
2021/10/03 04:42:39;;;;;;;8.32;7.53;;;23.80;60.00;;;;;;5010152;28;20048;-62
2021/10/03 04:45:08;;;;;;;7.78;6.97;;;24.00;63.40;;;;;;5006082;28;20022;-64
2021/10/03 04:47:35;;;;;;;11.93;9.23;;;24.10;60.80;;;;;;5010173;28;20048;-67
2021/10/03 04:50:03;;;;;;;8.55;6.68;;;24.10;64.10;;;;;;5006634;28;20022;-63
2021/10/03 04:52:31;;;;;;;8.15;7.35;;;24.10;62.80;;;;;;5010365;28;20575;-63
2021/10/03 04:54:58;;;;;;;10.20;7.05;;;24.10;63.80;;;;;;5006172;28;20064;-67
2021/10/03 04:57:26;;;;;;;13.80;7.60;;;24.10;60.20;;;;;;5010305;28;20074;-66
2021/10/03 04:59:53;;;;;;;12.48;6.07;;;24.10;61.50;;;;;;5010869;28;20109;-66
2021/10/03 05:02:20;;;;;;;6.85;6.05;;;24.20;61.10;;;;;;5011925;28;20472;-68
2021/10/03 05:04:48;;;;;;;6.75;4.97;;;24.20;62.30;;;;;;5007156;28;20571;-67
2021/10/03 05:07:15;;;;;;;9.07;6.00;;;24.20;59.20;;;;;;5012244;28;20387;-62
2021/10/03 05:09:42;;;;;;;7.13;6.40;;;24.30;59.70;;;;;;4993491;28;20330;-65
2021/10/03 05:12:10;;;;;;;7.18;6.47;;;24.30;63.40;;;;;;5009435;28;20461;-63
2021/10/03 05:14:37;;;;;;;9.23;6.15;;;24.10;63.90;;;;;;5001345;28;20029;-62
2021/10/03 05:17:05;;;;;;;8.98;6.05;;;24.10;65.60;;;;;;5010679;28;20473;-65
2021/10/03 05:19:32;;;;;;;8.50;5.65;;;24.10;67.40;;;;;;5009787;28;20061;-63
2021/10/03 05:22:00;;;;;;;6.55;4.95;;;23.90;65.40;;;;;;5006245;28;20032;-65
2021/10/03 05:24:27;;;;;;;5.70;4.88;;;23.90;66.20;;;;;;5004965;28;20111;-66
2021/10/03 05:26:55;;;;;;;4.03;3.60;;;24.00;66.00;;;;;;5009545;28;20030;-61
2021/10/03 05:29:23;;;;;;;4.95;4.28;;;24.00;59.50;;;;;;5012295;28;20018;-62
2021/10/03 05:31:51;;;;;;;4.25;3.38;;;24.00;64.40;;;;;;5010170;28;20033;-60
2021/10/03 05:34:19;;;;;;;5.75;5.00;;;23.90;61.50;;;;;;5006547;28;20033;-54
2021/10/03 05:36:47;;;;;;;6.40;5.38;;;23.90;65.00;;;;;;5007270;28;20038;-65
2021/10/03 05:39:14;;;;;;;10.65;4.95;;;23.90;66.10;;;;;;5010187;28;20028;-60
2021/10/03 05:41:42;;;;;;;9.30;4.60;;;23.70;63.90;;;;;;5010761;28;20477;-60
2021/10/03 05:44:12;;;;;;;7.43;4.70;;;23.70;66.10;;;;;;5006149;28;20026;-62
2021/10/03 05:46:40;;;;;;;6.10;3.92;;;23.60;67.00;;;;;;5009880;28;20030;-53
2021/10/03 05:49:08;;;;;;;4.10;3.38;;;23.50;66.40;;;;;;5009773;28;20082;-66
2021/10/03 05:51:35;;;;;;;4.90;4.05;;;23.60;63.10;;;;;;5010524;28;20021;-57
2021/10/03 05:54:08;;;;;;;5.00;2.78;;;23.70;64.60;;;;;;5005371;28;20073;-61
2021/10/03 05:56:36;;;;;;;3.80;3.25;;;23.50;65.80;;;;;;5009310;28;20053;-58
2021/10/03 05:59:05;;;;;;;5.25;3.45;;;23.50;65.70;;;;;;5009225;28;20022;-58
2021/10/03 06:01:33;;;;;;;4.85;3.97;;;23.40;66.10;;;;;;5010581;28;20070;-58
2021/10/03 06:04:00;;;;;;;4.47;3.70;;;23.30;67.30;;;;;;5005327;28;20026;-58
2021/10/03 06:06:30;;;;;;;4.40;3.50;;;23.20;67.80;;;;;;5010184;28;20387;-59
2021/10/03 06:09:03;;;;;;;3.75;3.40;;;23.00;67.70;;;;;;5009659;28;20464;-59
2021/10/03 06:11:31;;;;;;;4.10;2.90;;;23.00;68.60;;;;;;5010440;28;20396;-68
2021/10/03 06:14:01;;;;;;;3.72;2.80;;;22.90;68.40;;;;;;5005800;28;20030;-60
2021/10/03 06:16:29;;;;;;;5.65;2.97;;;22.90;68.60;;;;;;5010467;28;20573;-59
2021/10/03 06:18:56;;;;;;;3.70;2.42;;;22.80;68.70;;;;;;5010177;28;20022;-70
2021/10/03 06:21:25;;;;;;;2.97;2.67;;;22.70;68.80;;;;;;4989503;28;20022;-70
2021/10/03 06:23:59;;;;;;;5.18;2.95;;;22.70;69.10;;;;;;5004932;28;20424;-69
2021/10/03 06:26:26;;;;;;;7.30;3.00;;;22.60;69.10;;;;;;5009358;28;20038;-67
2021/10/03 06:28:53;;;;;;;3.55;3.17;;;22.60;69.20;;;;;;5008760;28;20022;-65
2021/10/03 06:31:21;;;;;;;4.88;2.85;;;22.40;70.90;;;;;;5010047;28;20094;-68
2021/10/03 06:33:48;;;;;;;4.82;2.90;;;22.40;69.40;;;;;;5005403;28;20113;-69
2021/10/03 06:36:15;;;;;;;6.47;2.90;;;22.30;70.50;;;;;;5009284;28;20026;-66
2021/10/03 06:38:43;;;;;;;5.30;2.25;;;22.30;70.90;;;;;;5008280;28;20025;-68
2021/10/03 06:41:10;;;;;;;3.58;2.65;;;22.20;70.70;;;;;;5009665;28;20026;-70
2021/10/03 06:43:38;;;;;;;3.92;2.63;;;22.10;71.60;;;;;;5005398;28;20116;-69
2021/10/03 06:46:08;;;;;;;3.92;2.47;;;22.10;72.10;;;;;;5005586;28;20087;-54
2021/10/03 06:48:36;;;;;;;5.30;2.22;;;22.00;71.80;;;;;;5004644;28;20022;-62
2021/10/03 06:51:04;;;;;;;3.35;2.35;;;22.00;71.40;;;;;;4991885;28;20373;-60
2021/10/03 06:53:34;;;;;;;4.70;2.50;;;22.00;71.00;;;;;;5004662;28;20137;-61
2021/10/03 06:56:03;;;;;;;2.33;2.10;;;22.00;72.30;;;;;;5009465;28;20022;-65
2021/10/03 06:58:31;;;;;;;3.63;2.38;;;22.00;71.20;;;;;;5008357;28;20566;-62
2021/10/03 07:00:58;;;;;;;3.53;2.60;;;22.00;71.50;;;;;;5009580;28;20086;-62
2021/10/03 07:03:26;;;;;;;3.28;2.20;;;22.00;71.20;;;;;;5005231;28;20022;-59
2021/10/03 07:06:03;;;;;;;3.50;2.30;;;21.90;71.50;;;;;;5008799;28;20045;-60
2021/10/03 07:08:31;;;;;;;2.95;2.55;;;21.90;72.20;;;;;;5008281;28;20018;-64
2021/10/03 07:10:59;;;;;;;3.17;2.05;;;21.90;72.90;;;;;;4991084;28;20082;-63
2021/10/03 07:13:26;;;;;;;5.85;2.50;;;21.90;72.20;;;;;;4987146;28;20026;-62
2021/10/03 07:15:54;;;;;;;3.85;2.42;;;21.80;73.10;;;;;;5008812;28;20026;-63
2021/10/03 07:18:22;;;;;;;3.67;2.55;;;21.80;72.70;;;;;;5007735;28;20022;-63
2021/10/03 07:20:49;;;;;;;2.60;2.10;;;21.80;73.00;;;;;;5009729;28;20480;-55
2021/10/03 07:23:17;;;;;;;2.00;1.80;;;21.70;73.40;;;;;;5005199;28;20798;-59
2021/10/03 07:25:45;;;;;;;5.10;1.67;;;21.70;73.50;;;;;;5009095;28;20034;-62
2021/10/03 07:28:15;;;;;;;4.97;2.55;;;21.60;73.60;;;;;;5009187;28;20103;-64
2021/10/03 07:30:43;;;;;;;4.53;2.50;;;21.60;73.70;;;;;;5009721;28;20030;-63
2021/10/03 07:33:10;;;;;;;4.57;2.53;;;21.60;73.60;;;;;;5009532;28;20034;-63
2021/10/03 07:35:38;;;;;;;2.53;1.70;;;21.50;74.60;;;;;;5012173;28;20025;-61
2021/10/03 07:38:06;;;;;;;2.80;2.40;;;21.50;74.00;;;;;;5012627;28;20063;-63
2021/10/03 07:40:33;;;;;;;4.82;2.80;;;21.50;74.50;;;;;;5012655;28;20026;-62
2021/10/03 07:43:01;;;;;;;2.45;1.98;;;21.50;74.50;;;;;;5012616;28;20018;-65
2021/10/03 07:45:29;;;;;;;3.75;2.13;;;21.40;74.50;;;;;;5003634;28;20038;-65
2021/10/03 07:47:56;;;;;;;3.03;2.45;;;21.40;74.60;;;;;;5011172;28;20108;-66
2021/10/03 07:50:28;;;;;;;4.60;2.60;;;21.40;74.30;;;;;;5011326;28;20445;-63
2021/10/03 07:52:56;;;;;;;3.92;2.30;;;21.40;75.00;;;;;;5008898;28;20388;-58
2021/10/03 07:55:28;;;;;;;4.13;2.83;;;21.30;75.30;;;;;;5004922;28;20029;-68
2021/10/03 07:57:59;;;;;;;3.55;2.25;;;21.30;75.20;;;;;;5011242;28;20608;-65
2021/10/03 08:00:26;;;;;;;6.45;3.25;;;21.30;74.50;;;;;;4993792;28;20052;-60
2021/10/03 08:03:25;;;;;;;6.10;3.35;;;21.30;75.00;;;;;;5007358;28;20057;-61
2021/10/03 08:05:52;;;;;;;4.30;2.53;;;21.20;75.60;;;;;;5002792;28;20029;-66
2021/10/03 08:08:23;;;;;;;4.35;2.35;;;21.20;75.30;;;;;;5010900;28;20026;-58
2021/10/03 08:10:50;;;;;;;4.60;2.42;;;21.10;74.20;;;;;;5010733;28;20029;-56
2021/10/03 08:13:21;;;;;;;4.45;2.00;;;21.10;74.20;;;;;;5011182;28;20606;-60
2021/10/03 08:15:49;;;;;;;3.88;2.47;;;21.10;74.90;;;;;;5006630;28;20065;-72
2021/10/03 08:18:16;;;;;;;3.63;2.50;;;21.10;75.30;;;;;;5011431;28;20034;-70
2021/10/03 08:20:45;;;;;;;5.00;2.33;;;21.00;74.60;;;;;;4993359;28;20034;-65
2021/10/03 08:23:12;;;;;;;8.90;5.32;;;21.00;75.90;;;;;;5011530;28;20046;-68
2021/10/03 08:25:40;;;;;;;19.80;12.30;;;21.00;75.30;;;;;;4988475;28;20524;-59
2021/10/03 08:28:11;;;;;;;37.53;21.67;;;21.00;75.10;;;;;;5011302;28;20022;-56
2021/10/03 08:30:39;;;;;;;63.85;38.55;;;21.00;74.60;;;;;;4994560;28;20045;-60
2021/10/03 08:33:07;;;;;;;99.72;55.25;;;21.00;76.30;;;;;;5012926;28;20026;-60
2021/10/03 08:35:34;;;;;;;121.72;73.32;;;21.00;76.80;;;;;;5006439;28;20026;-63
2021/10/03 08:38:02;;;;;;;123.30;73.50;;;21.00;77.20;;;;;;5011579;28;20097;-62
2021/10/03 08:40:30;;;;;;;131.27;72.97;;;21.00;77.80;;;;;;4993262;28;20222;-66
2021/10/03 08:42:58;;;;;;;121.32;69.70;;;21.00;77.90;;;;;;5011970;28;20079;-63
2021/10/03 08:45:29;;;;;;;93.20;54.88;;;21.00;77.00;;;;;;5002155;28;20041;-60
2021/10/03 08:47:57;;;;;;;103.45;61.75;;;21.00;75.70;;;;;;4987297;28;20359;-68
2021/10/03 08:50:24;;;;;;;120.72;68.90;;;21.00;77.80;;;;;;5011326;28;20472;-63
2021/10/03 08:52:52;;;;;;;124.95;73.72;;;21.00;78.30;;;;;;5007972;28;20042;-67
2021/10/03 08:55:19;;;;;;;108.93;67.68;;;21.00;78.40;;;;;;5003704;28;20090;-62
2021/10/03 08:57:47;;;;;;;102.32;63.80;;;21.00;78.20;;;;;;5010322;28;20032;-70
2021/10/03 09:00:21;;;;;;;101.65;61.75;;;21.00;77.70;;;;;;5009749;28;20028;-61
2021/10/03 09:03:00;;;;;;;103.43;60.45;;;20.90;76.30;;;;;;5008362;28;20028;-68
2021/10/03 09:05:30;;;;;;;112.43;66.90;;;20.90;76.90;;;;;;4998701;28;20456;-65
2021/10/03 09:08:04;;;;;;;107.32;63.85;;;20.90;77.60;;;;;;5006787;28;20025;-61
2021/10/03 09:10:59;;;;;;;102.50;57.85;;;20.90;75.30;;;;;;5005481;28;20085;-67
2021/10/03 09:13:33;;;;;;;72.60;43.80;;;20.90;76.50;;;;;;5003680;28;20396;-68
2021/10/03 09:16:24;;;;;;;73.95;46.53;;;20.90;76.90;;;;;;5001114;28;20041;-68
2021/10/03 09:19:10;;;;;;;75.07;44.15;;;20.80;77.10;;;;;;5009808;28;20162;-71
2021/10/03 09:21:43;;;;;;;85.28;50.28;;;20.90;76.50;;;;;;5007726;28;20105;-58
2021/10/03 09:24:12;;;;;;;81.00;49.08;;;20.80;77.10;;;;;;5005830;28;20030;-58
2021/10/03 09:27:03;;;;;;;72.78;42.95;;;20.80;77.70;;;;;;5009069;28;20034;-58
2021/10/03 09:29:54;;;;;;;105.28;62.95;;;20.80;76.70;;;;;;5006582;28;20026;-60
2021/10/03 09:32:22;;;;;;;106.13;61.88;;;20.80;78.50;;;;;;5009074;28;20030;-64
2021/10/03 09:34:52;;;;;;;99.38;59.50;;;20.80;77.80;;;;;;5005560;28;20037;-60
2021/10/03 09:37:20;;;;;;;103.82;60.95;;;20.80;78.70;;;;;;5009583;28;20030;-54
2021/10/03 09:39:50;;;;;;;84.20;48.25;;;20.80;77.80;;;;;;5009919;28;20422;-62
2021/10/03 09:42:22;;;;;;;103.55;62.03;;;20.80;78.40;;;;;;5009656;28;20480;-61
2021/10/03 09:45:08;;;;;;;81.30;48.60;;;20.80;78.10;;;;;;5004277;28;20030;-63
2021/10/03 09:47:37;;;;;;;96.32;57.17;;;20.70;78.40;;;;;;5007707;28;20037;-59
2021/10/03 09:50:08;;;;;;;82.60;50.78;;;20.70;78.80;;;;;;5009448;28;20018;-62
2021/10/03 09:52:37;;;;;;;99.55;60.72;;;20.70;78.90;;;;;;5005832;28;20453;-63
2021/10/03 09:55:09;;;;;;;72.45;45.65;;;20.70;79.60;;;;;;5001009;28;20038;-63
2021/10/03 09:57:38;;;;;;;80.15;47.75;;;20.70;79.10;;;;;;5008003;28;20030;-59
2021/10/03 10:00:10;;;;;;;95.05;56.42;;;20.70;78.90;;;;;;5006687;28;20034;-61
2021/10/03 10:02:39;;;;;;;52.17;32.08;;;20.70;79.60;;;;;;5010683;28;20109;-57
2021/10/03 10:05:08;;;;;;;97.97;56.38;;;20.70;78.20;;;;;;5003933;28;20042;-62
2021/10/03 10:07:37;;;;;;;73.90;47.58;;;20.70;79.70;;;;;;5006745;28;20022;-61
2021/10/03 10:10:09;;;;;;;79.05;45.80;;;20.70;79.30;;;;;;5006588;28;20122;-62
2021/10/03 10:12:51;;;;;;;89.00;53.60;;;20.70;78.70;;;;;;5009115;28;20029;-61
2021/10/03 10:15:23;;;;;;;90.38;55.15;;;20.70;79.80;;;;;;5017727;28;20037;-62
2021/10/03 10:17:51;;;;;;;82.00;47.92;;;20.60;80.20;;;;;;4988449;28;20034;-62
2021/10/03 10:20:20;;;;;;;75.00;44.47;;;20.60;79.80;;;;;;4987240;28;20048;-58
2021/10/03 10:22:57;;;;;;;73.85;43.83;;;20.60;78.80;;;;;;5005548;28;20026;-63
2021/10/03 10:25:39;;;;;;;81.43;51.03;;;20.60;79.30;;;;;;5005795;28;20030;-56
2021/10/03 10:28:15;;;;;;;;;;;20.60;80.40;;;;;;5007665;28;20376;-64
2021/10/03 10:31:19;;;;;;;65.72;39.30;;;20.60;79.30;;;;;;5004583;28;20020;-60
2021/10/03 10:34:39;;;;;;;86.40;54.80;;;20.50;79.70;;;;;;4988700;28;20032;-58
2021/10/03 10:37:06;;;;;;;91.78;55.30;;;20.50;80.20;;;;;;5004769;28;20075;-61
2021/10/03 10:39:34;;;;;;;77.63;49.10;;;20.50;80.70;;;;;;4987479;28;20038;-59
2021/10/03 10:42:02;;;;;;;79.43;48.60;;;20.50;80.00;;;;;;5008989;28;20030;-56
2021/10/03 10:44:32;;;;;;;78.22;46.17;;;20.50;80.90;;;;;;5009117;28;20037;-58
2021/10/03 10:47:14;;;;;;;81.50;50.75;;;20.50;80.60;;;;;;5008927;28;20029;-56
2021/10/03 10:49:46;;;;;;;80.63;47.97;;;20.50;81.00;;;;;;5005305;28;20094;-55
2021/10/03 10:52:22;;;;;;;74.15;45.88;;;20.50;81.10;;;;;;5009644;28;20028;-55
2021/10/03 10:55:11;;;;;;;73.53;46.80;;;20.50;80.60;;;;;;4967776;28;20035;-61
2021/10/03 10:57:57;;;;;;;78.38;48.42;;;20.50;81.00;;;;;;4967528;28;20041;-59
2021/10/03 11:00:26;;;;;;;58.22;38.72;;;20.40;81.00;;;;;;4965937;28;20034;-56
2021/10/03 11:03:02;;;;;;;71.85;43.25;;;20.40;80.70;;;;;;4971506;28;20034;-61
2021/10/03 11:05:36;;;;;;;69.95;46.38;;;20.50;80.90;;;;;;4968021;28;20126;-65
2021/10/03 11:08:31;;;;;;;74.82;46.42;;;20.50;81.00;;;;;;4969448;28;20023;-63
2021/10/03 11:10:59;;;;;;;71.10;45.28;;;20.40;81.10;;;;;;4968229;28;20117;-61
2021/10/03 11:13:46;;;;;;;64.90;41.42;;;20.50;81.30;;;;;;4973273;28;20503;-64
2021/10/03 11:16:43;;;;;;;76.43;49.58;;;20.40;81.50;;;;;;4973047;28;20815;-60
2021/10/03 11:19:33;;;;;;;60.72;37.25;;;20.40;81.10;;;;;;4969421;28;20039;-63
2021/10/03 11:22:07;;;;;;;59.95;36.50;;;20.40;80.60;;;;;;4971933;28;20030;-57
2021/10/03 11:24:55;;;;;;;62.30;37.83;;;20.40;80.90;;;;;;4974519;28;20058;-72
2021/10/03 11:27:32;;;;;;;69.72;43.35;;;20.40;81.20;;;;;;4974038;28;20035;-66
2021/10/03 11:30:01;;;;;;;75.45;48.67;;;20.40;81.20;;;;;;4974279;28;20046;-63
2021/10/03 11:32:41;;;;;;;62.50;40.22;;;20.40;81.50;;;;;;4974173;28;20026;-72
2021/10/03 11:35:12;;;;;;;59.10;35.42;;;20.40;81.60;;;;;;4973682;28;20035;-58
2021/10/03 11:37:48;;;;;;;68.10;43.03;;;20.30;81.30;;;;;;4973653;28;20084;-58
2021/10/03 11:40:27;;;;;;;85.80;48.50;;;20.30;81.50;;;;;;4973576;28;20081;-56
2021/10/03 11:42:57;;;;;;;58.67;36.40;;;20.30;81.70;;;;;;4971132;28;20118;-56
2021/10/03 11:45:26;;;;;;;72.13;44.05;;;20.30;81.70;;;;;;4973154;28;20039;-56
2021/10/03 11:47:55;;;;;;;71.82;45.65;;;20.30;81.80;;;;;;4966586;28;20106;-61
2021/10/03 11:50:25;;;;;;;73.18;44.60;;;20.30;82.10;;;;;;4970602;28;20031;-63
2021/10/03 11:52:56;;;;;;;62.38;39.05;;;20.30;82.20;;;;;;4980353;28;20399;-60
2021/10/03 11:55:35;;;;;;;56.60;36.75;;;20.30;82.10;;;;;;5012125;28;20046;-67
2021/10/03 11:58:08;;;;;;;59.20;34.97;;;20.30;82.10;;;;;;5012160;28;20022;-63
2021/10/03 12:00:52;;;;;;;53.53;32.90;;;20.40;82.20;;;;;;5009485;28;20032;-65
2021/10/03 12:03:21;;;;;;;52.05;33.78;;;20.30;82.10;;;;;;5007355;28;20486;-67
2021/10/03 12:05:49;;;;;;;50.40;32.83;;;20.30;82.10;;;;;;5011452;28;20091;-59
2021/10/03 12:08:19;;;;;;;54.70;34.10;;;20.30;82.20;;;;;;5012247;28;20097;-62
2021/10/03 12:10:52;;;;;;;54.95;36.60;;;20.30;82.30;;;;;;5012472;28;20036;-61
2021/10/03 12:13:36;;;;;;;52.28;31.70;;;20.30;82.30;;;;;;5012180;28;20022;-58
2021/10/03 12:16:12;;;;;;;53.72;34.83;;;20.30;82.20;;;;;;4995105;28;20075;-63
2021/10/03 12:19:09;;;;;;;44.20;30.02;;;20.30;82.10;;;;;;5012292;28;20097;-60
2021/10/03 12:21:37;;;;;;;43.67;27.27;;;20.20;82.20;;;;;;5012145;28;20029;-63
2021/10/03 12:24:11;;;;;;;39.25;24.58;;;20.20;82.10;;;;;;4993684;28;20110;-60
2021/10/03 12:26:46;;;;;;;44.20;29.13;;;20.20;82.20;;;;;;5011757;28;20046;-67
2021/10/03 12:29:38;;;;;;;34.95;24.30;;;20.20;82.30;;;;;;5013424;28;20026;-63
2021/10/03 12:32:17;;;;;;;48.67;32.08;;;20.20;82.10;;;;;;4996123;28;20022;-66
2021/10/03 12:34:51;;;;;;;41.97;27.17;;;20.10;82.20;;;;;;5012246;28;20029;-66
2021/10/03 12:37:25;;;;;;;32.88;18.60;;;20.10;82.30;;;;;;5012889;28;20034;-67
2021/10/03 12:40:00;;;;;;;41.67;26.85;;;20.10;82.30;;;;;;5012796;28;20030;-68
2021/10/03 12:42:31;;;;;;;32.88;24.40;;;20.10;82.30;;;;;;4994722;28;20064;-71
2021/10/03 12:45:00;;;;;;;40.33;27.45;;;20.10;82.50;;;;;;5012485;28;20086;-69
2021/10/03 12:47:27;;;;;;;36.35;24.40;;;20.10;82.40;;;;;;5012175;28;20018;-68
2021/10/03 12:49:55;;;;;;;43.20;27.38;;;20.10;82.20;;;;;;4994964;28;20030;-68
2021/10/03 12:52:24;;;;;;;32.13;21.52;;;20.10;82.20;;;;;;5012245;28;20408;-68
2021/10/03 12:54:52;;;;;;;48.85;34.20;;;20.10;82.10;;;;;;5012510;28;20048;-69